createdAt,value
2023-05-06T00:00:31.737Z,20.10
2023-05-06T00:03:34.939Z,20.10
2023-05-06T00:06:37.686Z,20.10
2023-05-06T00:09:39.883Z,20.10
2023-05-06T00:12:42.240Z,20.10
2023-05-06T00:15:44.661Z,20.10
2023-05-06T00:18:46.940Z,20.10
2023-05-06T00:21:49.251Z,20.10
2023-05-06T00:24:51.702Z,20.10
2023-05-06T00:27:54.452Z,20.00
2023-05-06T00:30:56.767Z,20.00
2023-05-06T00:33:59.057Z,20.00
2023-05-06T00:37:01.419Z,20.10
2023-05-06T00:40:04.400Z,20.00
2023-05-06T00:43:07.498Z,20.00
2023-05-06T00:46:11.757Z,20.00
2023-05-06T00:49:14.182Z,20.00
2023-05-06T00:52:17.767Z,20.00
2023-05-06T00:55:21.577Z,20.00
2023-05-06T00:58:23.901Z,20.00
2023-05-06T01:01:27.410Z,20.00
2023-05-06T01:04:30.912Z,20.00
2023-05-06T01:07:35.948Z,19.90
2023-05-06T01:11:21.765Z,19.90
2023-05-06T01:14:49.878Z,19.90
2023-05-06T01:17:54.832Z,19.90
2023-05-06T01:20:57.777Z,19.90
2023-05-06T01:24:02.801Z,19.90
2023-05-06T01:27:05.249Z,19.90
2023-05-06T01:30:08.522Z,19.90
2023-05-06T01:33:45.367Z,19.90
2023-05-06T01:37:18.272Z,19.80
2023-05-06T01:40:25.326Z,19.90
2023-05-06T01:43:30.309Z,19.90
2023-05-06T01:46:33.557Z,19.80
2023-05-06T01:49:36.275Z,19.80
2023-05-06T01:52:38.604Z,19.80
2023-05-06T01:55:41.630Z,19.80
2023-05-06T01:58:44.015Z,19.80
2023-05-06T02:01:46.413Z,19.80
2023-05-06T02:04:48.946Z,19.80
2023-05-06T02:07:51.499Z,19.80
2023-05-06T02:10:54.324Z,19.80
2023-05-06T02:13:58.532Z,19.80
2023-05-06T02:17:05.196Z,19.80
2023-05-06T02:20:10.100Z,19.80
2023-05-06T02:23:12.409Z,19.80
2023-05-06T02:26:15.111Z,19.70
2023-05-06T02:29:17.353Z,19.70
2023-05-06T02:32:19.611Z,19.80
2023-05-06T02:35:21.982Z,19.80
2023-05-06T02:38:26.013Z,19.70
2023-05-06T02:41:28.945Z,19.70
2023-05-06T02:44:31.273Z,19.70
2023-05-06T02:47:34.185Z,19.70
2023-05-06T02:50:36.459Z,19.70
2023-05-06T02:53:38.971Z,19.70
2023-05-06T02:56:43.467Z,19.70
2023-05-06T02:59:45.972Z,19.70
2023-05-06T03:02:48.409Z,19.70
2023-05-06T03:05:50.819Z,19.70
2023-05-06T03:08:53.232Z,19.60
2023-05-06T03:11:57.459Z,19.70
2023-05-06T03:15:00.207Z,19.70
2023-05-06T03:18:03.953Z,19.60
2023-05-06T03:21:06.421Z,19.60
2023-05-06T03:24:11.849Z,19.60
2023-05-06T03:27:14.796Z,19.60
2023-05-06T03:30:19.053Z,19.60
2023-05-06T03:33:23.486Z,19.60
2023-05-06T03:36:25.926Z,19.60
2023-05-06T03:39:29.544Z,19.60
2023-05-06T03:42:32.689Z,19.60
2023-05-06T03:45:36.205Z,19.60
2023-05-06T03:48:40.002Z,19.60
2023-05-06T03:51:46.683Z,19.60
2023-05-06T03:54:49.887Z,19.50
2023-05-06T03:57:52.192Z,19.60
2023-05-06T04:00:56.154Z,19.60
2023-05-06T04:03:58.603Z,19.50
2023-05-06T04:07:03.987Z,19.50
2023-05-06T04:10:07.473Z,19.50
2023-05-06T04:13:10.082Z,19.50
2023-05-06T04:16:17.265Z,19.50
2023-05-06T04:19:21.266Z,19.50
2023-05-06T04:22:24.030Z,19.50
2023-05-06T04:25:28.195Z,19.50
2023-05-06T04:28:30.813Z,19.50
2023-05-06T04:31:35.322Z,19.50
2023-05-06T04:34:41.785Z,19.50
2023-05-06T04:37:46.763Z,19.50
2023-05-06T04:40:55.694Z,19.50
2023-05-06T04:43:58.168Z,19.50
2023-05-06T04:47:00.628Z,19.40
2023-05-06T04:50:04.671Z,19.50
2023-05-06T04:53:07.109Z,19.40
2023-05-06T04:56:09.641Z,19.40
2023-05-06T04:59:12.394Z,19.40
2023-05-06T05:02:16.255Z,19.40
2023-05-06T05:05:19.938Z,19.40
2023-05-06T05:08:26.060Z,19.40
2023-05-06T05:11:28.496Z,19.40
2023-05-06T05:14:33.151Z,19.40
2023-05-06T05:17:35.970Z,19.40
2023-05-06T05:20:38.514Z,19.40
2023-05-06T05:23:44.008Z,19.40
2023-05-06T05:26:46.609Z,19.30
2023-05-06T05:29:50.750Z,19.40
2023-05-06T05:32:53.509Z,19.30
2023-05-06T05:35:55.960Z,19.40
2023-05-06T05:38:58.949Z,19.30
2023-05-06T05:42:03.956Z,19.40
2023-05-06T05:45:08.996Z,19.30
2023-05-06T05:48:11.781Z,19.40
2023-05-06T05:51:14.693Z,19.30
2023-05-06T05:54:18.224Z,19.30
2023-05-06T05:57:21.909Z,19.30
2023-05-06T06:00:25.160Z,19.40
2023-05-06T06:03:34.636Z,19.40
2023-05-06T06:06:56.438Z,19.40
2023-05-06T06:10:06.022Z,19.30
2023-05-06T06:13:08.655Z,19.30
2023-05-06T06:16:11.609Z,19.30
2023-05-06T06:19:17.056Z,19.30
2023-05-06T06:22:19.802Z,19.30
2023-05-06T06:25:22.657Z,19.30
2023-05-06T06:28:25.054Z,19.30
2023-05-06T06:31:29.509Z,19.30
2023-05-06T06:34:31.891Z,19.30
2023-05-06T06:37:34.364Z,19.30
2023-05-06T06:40:36.570Z,19.30
2023-05-06T06:43:39.036Z,19.30
2023-05-06T06:47:01.549Z,19.40
2023-05-06T06:50:04.220Z,19.30
2023-05-06T06:53:06.802Z,19.40
2023-05-06T06:56:12.240Z,19.40
2023-05-06T06:59:14.846Z,19.40
2023-05-06T07:02:17.235Z,19.40
2023-05-06T07:05:19.493Z,19.40
2023-05-06T07:08:22.554Z,19.40
2023-05-06T07:11:24.977Z,19.40
2023-05-06T07:14:27.596Z,19.50
2023-05-06T07:17:30.327Z,19.40
2023-05-06T07:20:32.625Z,19.40
2023-05-06T07:23:34.874Z,19.40
2023-05-06T07:26:37.626Z,19.50
2023-05-06T07:29:39.835Z,19.50
2023-05-06T07:32:42.302Z,19.50
2023-05-06T07:35:44.767Z,19.50
2023-05-06T07:38:47.312Z,19.50
2023-05-06T07:41:49.562Z,19.50
2023-05-06T07:44:52.132Z,19.50
2023-05-06T07:47:54.551Z,19.60
2023-05-06T07:50:57.050Z,19.60
2023-05-06T07:53:59.386Z,19.60
2023-05-06T07:57:02.618Z,19.60
2023-05-06T08:00:06.216Z,19.60
2023-05-06T08:03:16.953Z,19.70
2023-05-06T08:06:19.381Z,19.60
2023-05-06T08:09:22.901Z,19.70
2023-05-06T08:12:25.455Z,19.70
2023-05-06T08:15:27.719Z,19.70
2023-05-06T08:18:30.197Z,19.70
2023-05-06T08:21:32.561Z,19.70
2023-05-06T08:24:34.839Z,19.70
2023-05-06T08:27:37.145Z,19.80
2023-05-06T08:30:39.622Z,19.80
2023-05-06T08:33:41.887Z,19.80
2023-05-06T08:36:44.235Z,19.80
2023-05-06T08:39:46.615Z,19.80
2023-05-06T08:42:50.502Z,19.80
2023-05-06T08:45:52.884Z,19.90
2023-05-06T08:48:55.145Z,20.00
2023-05-06T08:51:58.300Z,20.00
2023-05-06T08:55:05.152Z,20.10
2023-05-06T08:58:08.325Z,20.20
2023-05-06T09:01:11.084Z,20.20
2023-05-06T09:04:13.898Z,20.20
2023-05-06T09:07:16.164Z,20.30
2023-05-06T09:10:19.240Z,20.30
2023-05-06T09:13:21.869Z,20.30
2023-05-06T09:16:31.029Z,20.40
2023-05-06T09:19:38.648Z,20.40
2023-05-06T09:22:41.591Z,20.40
2023-05-06T09:25:46.357Z,20.40
2023-05-06T09:28:48.808Z,20.40
2023-05-06T09:31:53.769Z,20.50
2023-05-06T09:34:56.747Z,20.50
2023-05-06T09:37:59.104Z,20.50
2023-05-06T09:41:03.976Z,20.50
2023-05-06T09:44:06.432Z,20.50
2023-05-06T09:47:09.298Z,20.60
2023-05-06T09:50:14.126Z,20.60
2023-05-06T09:53:18.408Z,20.60
2023-05-06T09:56:22.414Z,20.60
2023-05-06T09:59:27.382Z,20.60
2023-05-06T10:02:30.957Z,20.60
2023-05-06T10:05:36.605Z,20.60
2023-05-06T10:08:41.226Z,20.60
2023-05-06T10:11:45.792Z,20.70
2023-05-06T10:14:48.319Z,20.70
2023-05-06T10:17:53.308Z,20.70
2023-05-06T10:20:56.513Z,20.70
2023-05-06T10:24:07.436Z,20.70
2023-05-06T10:27:12.494Z,20.70
2023-05-06T10:30:18.784Z,20.80
2023-05-06T10:33:23.620Z,20.70
2023-05-06T10:36:28.627Z,20.70
2023-05-06T10:39:31.087Z,20.80
2023-05-06T10:42:36.490Z,20.80
2023-05-06T10:46:10.944Z,20.80
2023-05-06T10:49:17.065Z,20.80
2023-05-06T10:52:22.420Z,20.80
2023-05-06T10:55:30.819Z,20.80
2023-05-06T10:58:36.476Z,20.80
2023-05-06T11:01:44.104Z,20.80
2023-05-06T11:04:52.899Z,20.80
2023-05-06T11:08:11.342Z,20.80
2023-05-06T11:11:52.051Z,20.90
2023-05-06T11:14:54.387Z,20.90
2023-05-06T11:17:57.351Z,20.90
2023-05-06T11:21:02.962Z,20.90
2023-05-06T11:24:05.420Z,20.90
2023-05-06T11:27:09.463Z,20.90
2023-05-06T11:30:15.209Z,20.90
2023-05-06T11:33:22.359Z,20.90
2023-05-06T11:36:24.747Z,20.90
2023-05-06T11:39:36.718Z,20.90
2023-05-06T11:42:42.653Z,20.90
2023-05-06T11:45:46.776Z,21.00
2023-05-06T11:48:49.530Z,21.00
2023-05-06T11:51:51.850Z,21.00
2023-05-06T11:54:54.745Z,21.00
2023-05-06T11:57:57.201Z,21.00
2023-05-06T12:01:01.500Z,21.00
2023-05-06T12:04:04.095Z,21.00
2023-05-06T12:07:07.943Z,21.00
2023-05-06T12:10:10.824Z,21.00
2023-05-06T12:13:15.246Z,21.00
2023-05-06T12:16:18.085Z,21.00
2023-05-06T12:19:22.202Z,21.00
2023-05-06T12:22:25.033Z,21.00
2023-05-06T12:25:27.405Z,21.00
2023-05-06T12:28:31.096Z,21.00
2023-05-06T12:31:33.513Z,21.00
2023-05-06T12:34:42.063Z,21.00
2023-05-06T12:37:44.345Z,21.00
2023-05-06T12:40:54.649Z,21.00
2023-05-06T12:43:56.942Z,21.00
2023-05-06T12:47:04.569Z,21.00
2023-05-06T12:50:07.086Z,21.00
2023-05-06T12:53:11.512Z,21.00
2023-05-06T12:56:14.072Z,21.00
2023-05-06T12:59:16.346Z,21.10
2023-05-06T13:02:18.866Z,21.00
2023-05-06T13:05:21.413Z,21.00
2023-05-06T13:08:23.583Z,21.00
2023-05-06T13:11:26.192Z,21.00
2023-05-06T13:14:28.516Z,21.00
2023-05-06T13:17:31.023Z,21.00
2023-05-06T13:20:33.385Z,21.00
2023-05-06T13:23:37.026Z,21.10
2023-05-06T13:26:39.230Z,21.00
2023-05-06T13:29:41.501Z,21.10
2023-05-06T13:32:43.782Z,21.10
2023-05-06T13:35:46.132Z,21.10
2023-05-06T13:38:48.505Z,21.10
2023-05-06T13:41:51.312Z,21.10
2023-05-06T13:44:55.114Z,21.10
2023-05-06T13:47:57.390Z,21.10
2023-05-06T13:50:59.752Z,21.10
2023-05-06T13:54:02.821Z,21.10
2023-05-06T13:57:05.092Z,21.10
2023-05-06T14:00:10.490Z,21.10
2023-05-06T14:03:12.870Z,21.10
2023-05-06T14:06:15.227Z,21.10
2023-05-06T14:09:18.257Z,21.10
2023-05-06T14:12:21.897Z,21.10
2023-05-06T14:15:24.623Z,21.10
2023-05-06T14:18:27.907Z,21.10
2023-05-06T14:21:30.236Z,21.10
2023-05-06T14:24:32.525Z,21.10
2023-05-06T14:27:34.778Z,21.10
2023-05-06T14:30:40.232Z,21.10
2023-05-06T14:33:42.515Z,21.10
2023-05-06T14:36:45.075Z,21.10
2023-05-06T14:39:47.514Z,21.10
2023-05-06T14:42:50.302Z,21.10
2023-05-06T14:45:52.617Z,21.10
2023-05-06T14:48:54.996Z,21.10
2023-05-06T14:51:57.784Z,21.10
2023-05-06T14:55:02.382Z,21.10
2023-05-06T14:58:04.809Z,21.10
2023-05-06T15:01:07.309Z,21.10
2023-05-06T15:04:12.583Z,21.10
2023-05-06T15:07:14.878Z,21.10
2023-05-06T15:10:17.217Z,21.10
2023-05-06T15:13:19.556Z,21.20
2023-05-06T15:16:22.567Z,21.10
2023-05-06T15:19:25.013Z,21.10
2023-05-06T15:22:27.418Z,21.10
2023-05-06T15:25:35.508Z,21.10
2023-05-06T15:28:38.628Z,21.10
2023-05-06T15:31:43.852Z,21.10
2023-05-06T15:34:46.251Z,21.10
2023-05-06T15:37:48.529Z,21.10
2023-05-06T15:40:52.048Z,21.10
2023-05-06T15:43:56.387Z,21.10
2023-05-06T15:46:58.760Z,21.10
2023-05-06T15:50:01.613Z,21.10
2023-05-06T15:53:04.277Z,21.10
2023-05-06T15:56:18.004Z,21.10
2023-05-06T15:59:21.154Z,21.10
2023-05-06T16:02:27.360Z,21.10
2023-05-06T16:05:29.849Z,21.10
2023-05-06T16:08:32.164Z,21.10
2023-05-06T16:11:34.694Z,21.10
2023-05-06T16:14:37.083Z,21.10
2023-05-06T16:17:39.487Z,21.10
2023-05-06T16:20:41.821Z,21.10
2023-05-06T16:23:44.048Z,21.10
2023-05-06T16:26:46.265Z,21.10
2023-05-06T16:29:48.588Z,21.10
2023-05-06T16:32:50.815Z,21.10
2023-05-06T16:35:53.180Z,21.10
2023-05-06T16:38:55.781Z,21.10
2023-05-06T16:41:58.112Z,21.10
2023-05-06T16:45:00.302Z,21.10
2023-05-06T16:48:02.564Z,21.10
2023-05-06T16:51:05.072Z,21.10
2023-05-06T16:54:07.313Z,21.10
2023-05-06T16:57:09.579Z,21.10
2023-05-06T17:00:12.581Z,21.10
2023-05-06T17:03:15.248Z,21.10
2023-05-06T17:06:17.814Z,21.10
2023-05-06T17:09:20.741Z,21.10
2023-05-06T17:12:24.132Z,21.10
2023-05-06T17:15:29.299Z,21.20
2023-05-06T17:18:31.590Z,21.10
2023-05-06T17:21:33.849Z,21.10
2023-05-06T17:24:36.149Z,21.10
2023-05-06T17:27:39.090Z,21.10
2023-05-06T17:30:41.652Z,21.10
2023-05-06T17:33:47.505Z,21.10
2023-05-06T17:36:49.926Z,21.10
2023-05-06T17:39:52.589Z,21.20
2023-05-06T17:42:54.863Z,21.10
2023-05-06T17:45:57.306Z,21.10
2023-05-06T17:48:59.669Z,21.10
2023-05-06T17:52:02.096Z,21.10
2023-05-06T17:55:15.543Z,21.10
2023-05-06T17:58:19.540Z,21.10
2023-05-06T18:01:21.761Z,21.10
2023-05-06T18:04:24.096Z,21.10
2023-05-06T18:07:26.296Z,21.10
2023-05-06T18:10:28.591Z,21.10
2023-05-06T18:13:35.358Z,21.10
2023-05-06T18:16:37.905Z,21.10
2023-05-06T18:19:40.275Z,21.20
2023-05-06T18:22:43.138Z,21.10
2023-05-06T18:25:45.690Z,21.10
2023-05-06T18:28:48.072Z,21.10
2023-05-06T18:31:50.363Z,21.10
2023-05-06T18:34:52.723Z,21.10
2023-05-06T18:37:55.113Z,21.10
2023-05-06T18:40:57.323Z,21.10
2023-05-06T18:43:59.492Z,21.10
2023-05-06T18:47:02.320Z,21.10
2023-05-06T18:50:04.816Z,21.10
2023-05-06T18:53:07.118Z,21.10
2023-05-06T18:56:10.085Z,21.10
2023-05-06T18:59:13.537Z,21.10
2023-05-06T19:02:16.134Z,21.10
2023-05-06T19:05:19.392Z,21.10
2023-05-06T19:08:21.890Z,21.10
2023-05-06T19:11:24.819Z,21.10
2023-05-06T19:14:27.037Z,21.10
2023-05-06T19:17:29.388Z,21.10
2023-05-06T19:20:31.828Z,21.10
2023-05-06T19:23:34.161Z,21.10
2023-05-06T19:26:38.917Z,21.10
2023-05-06T19:29:41.187Z,21.10
2023-05-06T19:32:44.664Z,21.00
2023-05-06T19:35:47.025Z,21.10
2023-05-06T19:38:49.284Z,21.00
2023-05-06T19:41:52.583Z,21.10
2023-05-06T19:44:54.784Z,21.10
2023-05-06T19:47:57.926Z,21.00
2023-05-06T19:51:00.272Z,21.10
2023-05-06T19:54:02.559Z,21.00
2023-05-06T19:57:04.844Z,21.10
2023-05-06T20:00:10.394Z,21.00
2023-05-06T20:03:13.270Z,21.10
2023-05-06T20:06:15.700Z,21.00
2023-05-06T20:09:17.925Z,21.10
2023-05-06T20:12:20.214Z,21.00
2023-05-06T20:15:22.899Z,21.00
2023-05-06T20:18:25.641Z,21.10
2023-05-06T20:21:28.010Z,21.10
2023-05-06T20:24:30.456Z,21.00
2023-05-06T20:27:32.827Z,21.00
2023-05-06T20:30:35.364Z,21.00
2023-05-06T20:33:37.697Z,21.00
2023-05-06T20:36:40.556Z,21.00
2023-05-06T20:39:43.964Z,21.00
2023-05-06T20:42:46.731Z,21.00
2023-05-06T20:45:49.052Z,21.00
2023-05-06T20:48:52.081Z,21.00
2023-05-06T20:51:54.388Z,21.00
2023-05-06T20:54:57.021Z,21.00
2023-05-06T20:57:59.372Z,21.00
2023-05-06T21:01:03.447Z,21.00
2023-05-06T21:04:09.478Z,21.00
2023-05-06T21:07:11.737Z,21.00
2023-05-06T21:10:14.801Z,21.00
2023-05-06T21:13:17.208Z,21.00
2023-05-06T21:16:19.688Z,21.00
2023-05-06T21:19:21.980Z,21.00
2023-05-06T21:22:24.617Z,21.00
2023-05-06T21:25:27.048Z,21.00
2023-05-06T21:28:29.424Z,21.00
2023-05-06T21:31:31.813Z,21.00
2023-05-06T21:34:35.958Z,20.90
2023-05-06T21:37:38.244Z,20.90
2023-05-06T21:40:40.599Z,20.90
2023-05-06T21:43:43.297Z,21.00
2023-05-06T21:46:45.700Z,21.00
2023-05-06T21:49:48.036Z,21.00
2023-05-06T21:52:50.588Z,20.90
2023-05-06T21:55:52.809Z,20.90
2023-05-06T21:58:56.201Z,20.90
2023-05-06T22:01:58.470Z,20.90
2023-05-06T22:05:00.802Z,20.90
2023-05-06T22:08:03.083Z,20.90
2023-05-06T22:11:05.412Z,20.90
2023-05-06T22:14:07.775Z,20.90
2023-05-06T22:17:10.850Z,20.90
2023-05-06T22:20:13.899Z,20.90
2023-05-06T22:23:16.416Z,20.90
2023-05-06T22:26:18.630Z,20.90
2023-05-06T22:29:21.059Z,20.90
2023-05-06T22:32:23.303Z,20.80
2023-05-06T22:35:25.626Z,20.80
2023-05-06T22:38:27.841Z,20.90
2023-05-06T22:41:31.266Z,20.90
2023-05-06T22:44:33.650Z,20.80
2023-05-06T22:47:36.009Z,20.80
2023-05-06T22:50:38.775Z,20.80
2023-05-06T22:53:41.214Z,20.80
2023-05-06T22:56:43.641Z,20.80
2023-05-06T22:59:46.023Z,20.80
2023-05-06T23:02:48.399Z,20.80
2023-05-06T23:05:50.930Z,20.80
2023-05-06T23:08:53.367Z,20.80
2023-05-06T23:11:55.921Z,20.80
2023-05-06T23:14:58.480Z,20.80
2023-05-06T23:18:01.209Z,20.70
2023-05-06T23:21:03.511Z,20.70
2023-05-06T23:24:06.306Z,20.70
2023-05-06T23:27:08.628Z,20.70
2023-05-06T23:30:11.438Z,20.70
2023-05-06T23:33:13.906Z,20.70
2023-05-06T23:36:16.605Z,20.70
2023-05-06T23:39:19.087Z,20.70
2023-05-06T23:42:21.790Z,20.70
2023-05-06T23:45:26.072Z,20.70
2023-05-06T23:48:28.406Z,20.70
2023-05-06T23:51:32.099Z,20.60
2023-05-06T23:54:34.288Z,20.70
2023-05-06T23:57:36.657Z,20.60
